Terminal Aerodrome Forecast
Issued by NWS

Home | Current Version | Previous Version | Text Only | Print | Product List | Glossary On
Versions: 1 2 3 4 5 6 7 8 9 10 11 12 13 14 15
000
FTUS44 KEWX 301700
TAFSSF
TAF
KSSF 301726Z 3018/0118 16006KT P6SM SCT045
     FM010200 15004KT P6SM FEW250
     FM010800 16003KT P6SM BKN015
     FM011100 16003KT 5SM BR OVC010
     FM011600 18008KT P6SM SCT035=

USA.gov is the U.S. government's official web portal to all federal, state and local government web resources and services.